createdAt,value
2018-09-28T00:01:04.768Z,4.63
2018-09-28T00:03:33.240Z,4.20
2018-09-28T00:06:01.696Z,5.03
2018-09-28T00:08:30.188Z,5.37
2018-09-28T00:10:58.671Z,5.17
2018-09-28T00:13:27.138Z,5.60
2018-09-28T00:15:55.536Z,5.40
2018-09-28T00:18:23.960Z,5.10
2018-09-28T00:20:52.479Z,4.73
2018-09-28T00:23:20.919Z,4.90
2018-09-28T00:25:49.359Z,4.70
2018-09-28T00:28:17.829Z,5.37
2018-09-28T00:30:46.291Z,4.70
2018-09-28T00:33:14.760Z,5.10
2018-09-28T00:35:43.248Z,5.40
2018-09-28T00:38:11.669Z,4.60
2018-09-28T00:40:40.110Z,3.20
2018-09-28T00:43:08.651Z,4.37
2018-09-28T00:45:37.127Z,4.27
2018-09-28T00:48:05.744Z,4.90
2018-09-28T00:50:34.195Z,4.63
2018-09-28T00:53:02.728Z,5.40
2018-09-28T00:55:31.197Z,5.03
2018-09-28T00:57:59.651Z,6.10
2018-09-28T01:00:28.157Z,5.97
2018-09-28T01:02:56.604Z,5.77
2018-09-28T01:05:25.049Z,5.83
2018-09-28T01:07:54.338Z,5.23
2018-09-28T01:10:22.838Z,4.70
2018-09-28T01:12:51.344Z,5.00
2018-09-28T01:15:19.779Z,5.67
2018-09-28T01:17:48.303Z,6.00
2018-09-28T01:20:16.824Z,5.73
2018-09-28T01:22:45.278Z,6.53
2018-09-28T01:25:13.781Z,5.10
2018-09-28T01:27:42.244Z,9.00
2018-09-28T01:30:10.919Z,6.60
2018-09-28T01:32:39.401Z,6.93
2018-09-28T01:35:07.764Z,6.33
2018-09-28T01:37:36.119Z,8.97
2018-09-28T01:40:04.534Z,8.10
2018-09-28T01:42:32.907Z,6.50
2018-09-28T01:45:01.279Z,7.67
2018-09-28T01:47:29.636Z,8.30
2018-09-28T01:49:58.160Z,9.80
2018-09-28T01:52:26.675Z,8.27
2018-09-28T01:54:55.199Z,11.57
2018-09-28T01:57:23.734Z,10.10
2018-09-28T01:59:52.143Z,11.63
2018-09-28T02:02:20.528Z,12.27
2018-09-28T02:04:49.039Z,13.40
2018-09-28T02:07:17.451Z,13.53
2018-09-28T02:09:45.847Z,14.50
2018-09-28T02:12:14.263Z,15.60
2018-09-28T02:14:42.751Z,14.00
2018-09-28T02:17:11.288Z,16.20
2018-09-28T02:19:39.656Z,13.70
2018-09-28T02:22:08.055Z,15.50
2018-09-28T02:24:36.636Z,14.53
2018-09-28T02:27:05.028Z,15.97
2018-09-28T02:29:33.428Z,14.90
2018-09-28T02:32:01.843Z,15.57
2018-09-28T02:34:30.248Z,13.90
2018-09-28T02:36:58.617Z,14.90
2018-09-28T02:39:26.962Z,15.53
2018-09-28T02:41:55.472Z,16.23
2018-09-28T02:44:23.955Z,15.93
2018-09-28T02:46:52.455Z,16.60
2018-09-28T02:49:20.873Z,16.00
2018-09-28T02:51:49.253Z,16.50
2018-09-28T02:54:17.809Z,17.17
2018-09-28T02:56:46.244Z,17.43
2018-09-28T02:59:14.655Z,17.67
2018-09-28T03:01:43.064Z,16.00
2018-09-28T03:04:11.433Z,16.07
2018-09-28T03:06:39.805Z,16.60
2018-09-28T03:09:09.128Z,15.90
2018-09-28T03:11:37.573Z,17.50
2018-09-28T03:14:05.942Z,15.67
2018-09-28T03:16:34.428Z,14.80
2018-09-28T03:19:02.942Z,14.20
2018-09-28T03:21:31.895Z,17.20
2018-09-28T03:24:00.516Z,15.90
2018-09-28T03:26:28.901Z,15.67
2018-09-28T03:28:57.398Z,15.77
2018-09-28T03:31:25.863Z,14.10
2018-09-28T03:33:54.373Z,15.13
2018-09-28T03:36:22.878Z,12.87
2018-09-28T03:38:51.387Z,13.97
2018-09-28T03:41:19.974Z,15.70
2018-09-28T03:43:48.464Z,14.67
2018-09-28T03:46:16.987Z,12.43
2018-09-28T03:48:45.474Z,13.40
2018-09-28T03:51:13.867Z,15.07
2018-09-28T03:53:42.328Z,14.13
2018-09-28T03:56:10.811Z,13.27
2018-09-28T03:58:39.193Z,11.97
2018-09-28T04:01:07.688Z,12.50
2018-09-28T04:03:36.176Z,11.27
2018-09-28T04:06:04.652Z,11.67
2018-09-28T04:08:33.111Z,12.07
2018-09-28T04:11:01.563Z,12.07
2018-09-28T04:13:30.134Z,13.53
2018-09-28T04:15:58.598Z,13.20
2018-09-28T04:18:27.024Z,10.47
2018-09-28T04:20:55.672Z,12.30
2018-09-28T04:23:24.140Z,12.10
2018-09-28T04:25:52.651Z,14.17
2018-09-28T04:28:21.118Z,11.67
2018-09-28T04:30:49.692Z,14.00
2018-09-28T04:33:18.163Z,14.40
2018-09-28T04:35:46.703Z,13.93
2018-09-28T04:38:15.183Z,14.30
2018-09-28T04:40:43.753Z,13.40
2018-09-28T04:43:12.653Z,13.40
2018-09-28T04:45:41.362Z,16.30
2018-09-28T04:48:09.902Z,15.13
2018-09-28T04:50:38.449Z,15.13
2018-09-28T04:53:07.013Z,17.07
2018-09-28T04:55:35.703Z,16.90
2018-09-28T04:58:04.232Z,17.70
2018-09-28T05:00:32.775Z,17.60
2018-09-28T05:03:01.291Z,17.93
2018-09-28T05:05:29.851Z,18.90
2018-09-28T05:07:58.319Z,18.50
2018-09-28T05:10:26.843Z,18.20
2018-09-28T05:12:55.556Z,17.67
2018-09-28T05:15:24.127Z,19.10
2018-09-28T05:17:52.690Z,21.33
2018-09-28T05:20:21.231Z,21.07
2018-09-28T05:22:49.839Z,20.13
2018-09-28T05:25:18.404Z,23.63
2018-09-28T05:27:46.902Z,24.43
2018-09-28T05:30:15.459Z,26.60
2018-09-28T05:32:44.079Z,27.00
2018-09-28T05:35:12.569Z,27.00
2018-09-28T05:37:41.175Z,26.93
2018-09-28T05:40:09.723Z,31.47
2018-09-28T05:42:38.524Z,29.70
2018-09-28T05:45:07.049Z,33.33
2018-09-28T05:47:35.563Z,31.23
2018-09-28T05:50:04.086Z,36.20
2018-09-28T05:52:32.567Z,30.93
2018-09-28T05:55:01.090Z,29.80
2018-09-28T05:57:29.604Z,31.93
2018-09-28T06:00:03.308Z,35.87
2018-09-28T06:02:37.903Z,31.00
2018-09-28T06:05:12.567Z,28.20
2018-09-28T06:07:41.081Z,30.20
2018-09-28T06:10:09.662Z,30.50
2018-09-28T06:12:38.250Z,31.27
2018-09-28T06:15:06.780Z,31.07
2018-09-28T06:17:35.267Z,33.60
2018-09-28T06:20:03.795Z,29.93
2018-09-28T06:22:32.282Z,28.30
2018-09-28T06:25:00.785Z,27.47
2018-09-28T06:27:29.264Z,24.80
2018-09-28T06:29:57.779Z,26.87
2018-09-28T06:32:26.219Z,24.90
2018-09-28T06:34:54.704Z,23.60
2018-09-28T06:37:23.165Z,25.70
2018-09-28T06:39:51.600Z,25.67
2018-09-28T06:42:20.156Z,24.17
2018-09-28T06:44:48.559Z,24.23
2018-09-28T06:47:16.987Z,28.70
2018-09-28T06:49:45.477Z,32.43
2018-09-28T06:52:14.039Z,39.07
2018-09-28T06:54:42.533Z,37.43
2018-09-28T06:57:11.047Z,38.93
2018-09-28T06:59:39.517Z,41.13
2018-09-28T07:02:08.063Z,41.53
2018-09-28T07:04:36.603Z,43.63
2018-09-28T07:07:05.111Z,44.37
2018-09-28T07:09:33.729Z,46.03
2018-09-28T07:12:02.224Z,48.17
2018-09-28T07:14:30.771Z,48.30
2018-09-28T07:16:59.436Z,45.80
2018-09-28T07:19:28.025Z,53.13
2018-09-28T07:21:56.553Z,47.03
2018-09-28T07:24:26.103Z,48.37
2018-09-28T07:26:54.647Z,49.70
2018-09-28T07:29:23.159Z,51.07
2018-09-28T07:31:51.983Z,52.00
2018-09-28T07:34:20.867Z,55.17
2018-09-28T07:36:49.461Z,56.47
2018-09-28T07:39:17.880Z,58.00
2018-09-28T07:41:46.405Z,53.77
2018-09-28T07:44:14.873Z,56.63
2018-09-28T07:46:43.389Z,55.47
2018-09-28T07:49:11.941Z,53.60
2018-09-28T07:51:40.457Z,50.03
2018-09-28T07:54:09.016Z,49.73
2018-09-28T07:56:37.573Z,46.63
2018-09-28T07:59:06.069Z,49.57
2018-09-28T08:01:34.691Z,44.60
2018-09-28T08:04:03.218Z,40.13
2018-09-28T08:06:31.707Z,39.37
2018-09-28T08:09:00.212Z,40.57
2018-09-28T08:11:28.721Z,39.50
2018-09-28T08:13:57.237Z,39.63
2018-09-28T08:16:25.726Z,38.80
2018-09-28T08:18:54.251Z,36.40
2018-09-28T08:21:22.760Z,36.10
2018-09-28T08:23:51.263Z,36.97
2018-09-28T08:26:19.744Z,37.07
2018-09-28T08:28:48.305Z,36.53
2018-09-28T08:31:16.799Z,35.70
2018-09-28T08:33:45.365Z,36.90
2018-09-28T08:36:13.920Z,33.83
2018-09-28T08:38:42.502Z,33.80
2018-09-28T08:41:11.087Z,31.50
2018-09-28T08:43:39.651Z,28.97
2018-09-28T08:46:08.226Z,32.53
2018-09-28T08:48:36.899Z,36.67
2018-09-28T08:51:05.990Z,31.50
2018-09-28T08:53:34.577Z,30.67
2018-09-28T08:56:03.609Z,29.53
2018-09-28T08:58:34.894Z,30.00
2018-09-28T09:01:05.890Z,32.70
2018-09-28T09:03:34.471Z,32.90
2018-09-28T09:06:05.136Z,34.07
2018-09-28T09:08:35.252Z,29.80
2018-09-28T09:11:03.766Z,29.30
2018-09-28T09:13:34.384Z,27.77
2018-09-28T09:16:05.451Z,27.67
2018-09-28T09:18:34.019Z,26.50
2018-09-28T09:21:04.629Z,25.67
2018-09-28T09:23:35.497Z,29.97
2018-09-28T09:26:04.040Z,28.87
2018-09-28T09:28:32.527Z,25.50
2018-09-28T09:31:01.239Z,24.37
2018-09-28T09:33:32.938Z,21.87
2018-09-28T09:36:01.438Z,23.87
2018-09-28T09:38:29.963Z,24.20
2018-09-28T09:40:58.490Z,25.70
2018-09-28T09:43:26.983Z,25.03
2018-09-28T09:45:57.704Z,26.27
2018-09-28T09:48:27.546Z,24.07
2018-09-28T09:50:55.998Z,24.50
2018-09-28T09:53:26.576Z,27.40
2018-09-28T09:55:55.212Z,27.07
2018-09-28T09:58:23.851Z,28.07
2018-09-28T10:00:59.290Z,29.00
2018-09-28T10:03:34.157Z,25.47
2018-09-28T10:06:04.017Z,24.60
2018-09-28T10:08:32.748Z,27.13
2018-09-28T10:11:01.387Z,26.03
2018-09-28T10:13:30.145Z,25.07
2018-09-28T10:16:00.603Z,26.77
2018-09-28T10:18:30.704Z,26.13
2018-09-28T10:20:59.247Z,25.67
2018-09-28T10:23:27.742Z,21.60
2018-09-28T10:25:56.260Z,21.50
2018-09-28T10:28:26.599Z,19.47
2018-09-28T10:30:55.132Z,19.60
2018-09-28T10:33:23.738Z,13.37
2018-09-28T10:35:52.240Z,15.10
2018-09-28T10:38:23.379Z,17.57
2018-09-28T10:40:52.884Z,14.40
2018-09-28T10:43:21.360Z,16.13
2018-09-28T10:45:49.931Z,13.33
2018-09-28T10:48:18.490Z,14.17
2018-09-28T10:50:47.070Z,10.20
2018-09-28T10:53:18.830Z,10.93
2018-09-28T10:55:47.454Z,11.30
2018-09-28T10:58:16.170Z,10.27
2018-09-28T11:00:45.967Z,7.90
2018-09-28T11:03:15.284Z,8.00
2018-09-28T11:05:43.800Z,9.43
2018-09-28T11:08:14.806Z,7.37
2018-09-28T11:10:43.812Z,7.20
2018-09-28T11:13:12.685Z,8.13
2018-09-28T11:15:43.864Z,6.80
2018-09-28T11:18:12.782Z,7.37
2018-09-28T11:20:41.312Z,7.93
2018-09-28T11:23:09.853Z,6.53
2018-09-28T11:25:38.391Z,6.67
2018-09-28T11:28:09.198Z,6.50
2018-09-28T11:30:38.068Z,6.90
2018-09-28T11:33:08.238Z,5.20
2018-09-28T11:35:37.243Z,5.67
2018-09-28T11:38:08.308Z,6.53
2018-09-28T11:40:38.454Z,5.77
2018-09-28T11:43:07.358Z,4.97
2018-09-28T11:45:36.391Z,5.20
2018-09-28T11:48:04.895Z,3.70
2018-09-28T11:50:34.617Z,5.03
2018-09-28T11:53:06.779Z,4.60
2018-09-28T11:55:36.529Z,5.03
2018-09-28T11:58:05.285Z,4.40
2018-09-28T12:00:35.327Z,5.23
2018-09-28T12:03:04.936Z,4.17
2018-09-28T12:05:33.701Z,5.90
2018-09-28T12:08:04.811Z,4.53
2018-09-28T12:10:33.316Z,4.10
2018-09-28T12:13:01.800Z,4.50
2018-09-28T12:15:33.587Z,4.90
2018-09-28T12:18:02.096Z,4.40
2018-09-28T12:20:30.724Z,3.20
2018-09-28T12:23:00.372Z,4.33
2018-09-28T12:25:28.822Z,4.07
2018-09-28T12:27:57.378Z,4.30
2018-09-28T12:30:25.924Z,3.47
2018-09-28T12:32:54.354Z,3.87
2018-09-28T12:35:22.882Z,3.50
2018-09-28T12:37:52.759Z,4.03
2018-09-28T12:40:24.506Z,5.47
2018-09-28T12:42:53.111Z,4.47
2018-09-28T12:45:23.483Z,5.33
2018-09-28T12:47:52.982Z,4.57
2018-09-28T12:50:21.570Z,4.20
2018-09-28T12:52:50.056Z,4.50
2018-09-28T12:55:18.808Z,4.93
2018-09-28T12:57:47.556Z,5.40
2018-09-28T13:00:17.679Z,4.73
2018-09-28T13:02:46.209Z,4.70
2018-09-28T13:05:16.634Z,4.40
2018-09-28T13:07:45.144Z,5.10
2018-09-28T13:10:13.723Z,4.60
2018-09-28T13:12:42.532Z,4.70
2018-09-28T13:15:11.179Z,4.90
2018-09-28T13:17:39.682Z,5.40
2018-09-28T13:20:08.497Z,5.40
2018-09-28T13:22:37.114Z,4.93
2018-09-28T13:25:05.631Z,4.50
2018-09-28T13:27:34.177Z,5.10
2018-09-28T13:30:02.968Z,4.33
2018-09-28T13:32:31.576Z,4.80
2018-09-28T13:35:00.110Z,4.07
2018-09-28T13:37:28.670Z,5.60
2018-09-28T13:39:58.262Z,4.70
2018-09-28T13:42:26.989Z,5.20
2018-09-28T13:44:56.574Z,4.40
2018-09-28T13:47:25.075Z,5.10
2018-09-28T13:49:53.597Z,4.60
2018-09-28T13:52:23.017Z,5.50
2018-09-28T13:54:51.555Z,6.47
2018-09-28T13:57:22.540Z,5.17
2018-09-28T13:59:53.364Z,4.43
2018-09-28T14:02:22.443Z,4.57
2018-09-28T14:04:51.036Z,4.80
2018-09-28T14:07:19.464Z,3.90
2018-09-28T14:09:48.020Z,4.57
2018-09-28T14:12:17.124Z,5.00
2018-09-28T14:14:45.736Z,4.03
2018-09-28T14:17:14.272Z,4.90
2018-09-28T14:19:43.456Z,4.60
2018-09-28T14:22:14.439Z,4.87
2018-09-28T14:24:44.049Z,4.43
2018-09-28T14:27:12.600Z,4.20
2018-09-28T14:29:41.174Z,4.47
2018-09-28T14:32:09.921Z,4.33
2018-09-28T14:34:40.169Z,5.10
2018-09-28T14:37:11.515Z,4.53
2018-09-28T14:39:40.091Z,4.50
2018-09-28T14:42:10.629Z,4.63
2018-09-28T14:44:41.340Z,4.70
2018-09-28T14:47:09.989Z,5.00
2018-09-28T14:49:38.606Z,4.57
2018-09-28T14:52:07.135Z,5.27
2018-09-28T14:54:35.750Z,5.00
2018-09-28T14:57:06.310Z,4.27
2018-09-28T14:59:37.271Z,4.37
2018-09-28T15:02:07.414Z,4.90
2018-09-28T15:04:36.147Z,5.73
2018-09-28T15:07:06.117Z,4.77
2018-09-28T15:09:36.567Z,3.80
2018-09-28T15:12:06.328Z,4.07
2018-09-28T15:14:35.976Z,3.50
2018-09-28T15:17:05.118Z,5.53
2018-09-28T15:19:33.740Z,3.60
2018-09-28T15:22:04.541Z,3.50
2018-09-28T15:24:33.115Z,2.37
2018-09-28T15:27:01.632Z,3.00
2018-09-28T15:29:37.223Z,3.87
2018-09-28T15:32:06.011Z,2.80
2018-09-28T15:34:35.020Z,2.63
2018-09-28T15:37:04.861Z,2.57
2018-09-28T15:39:33.307Z,2.70
2018-09-28T15:42:03.256Z,2.70
2018-09-28T15:44:31.881Z,2.70
2018-09-28T15:47:00.471Z,2.97
2018-09-28T15:49:29.762Z,2.57
2018-09-28T15:51:58.414Z,3.00
2018-09-28T15:54:27.693Z,2.73
2018-09-28T15:56:57.964Z,2.80
2018-09-28T15:59:29.053Z,2.50
2018-09-28T16:01:57.593Z,2.20
2018-09-28T16:04:26.161Z,2.40
2018-09-28T16:06:54.611Z,2.50
2018-09-28T16:09:23.119Z,2.03
2018-09-28T16:11:51.691Z,2.90
2018-09-28T16:14:20.281Z,2.43
2018-09-28T16:16:48.792Z,3.47
2018-09-28T16:19:17.313Z,2.40
2018-09-28T16:21:45.786Z,2.30
2018-09-28T16:24:14.403Z,1.73
2018-09-28T16:26:44.685Z,2.37
2018-09-28T16:29:13.339Z,2.00
2018-09-28T16:31:41.859Z,1.60
2018-09-28T16:34:10.342Z,2.17
2018-09-28T16:36:40.447Z,2.37
2018-09-28T16:39:10.198Z,3.63
2018-09-28T16:41:39.921Z,4.23
2018-09-28T16:44:09.642Z,2.70
2018-09-28T16:46:38.180Z,2.57
2018-09-28T16:49:06.754Z,2.00
2018-09-28T16:51:37.547Z,2.53
2018-09-28T16:54:07.059Z,2.70
2018-09-28T16:56:35.713Z,2.83
2018-09-28T16:59:04.199Z,1.43
2018-09-28T17:01:33.366Z,1.73
2018-09-28T17:04:02.406Z,1.93
2018-09-28T17:06:31.520Z,2.10
2018-09-28T17:09:00.037Z,1.83
2018-09-28T17:11:29.931Z,1.60
2018-09-28T17:13:59.604Z,2.03
2018-09-28T17:16:28.837Z,2.30
2018-09-28T17:18:58.034Z,1.80
2018-09-28T17:21:26.588Z,1.97
2018-09-28T17:23:58.284Z,2.20
2018-09-28T17:26:27.076Z,2.10
2018-09-28T17:28:55.693Z,3.00
2018-09-28T17:31:24.473Z,2.30
2018-09-28T17:33:53.136Z,2.53
2018-09-28T17:36:21.614Z,2.80
2018-09-28T17:38:50.151Z,1.87
2018-09-28T17:41:18.735Z,1.57
2018-09-28T17:43:47.200Z,2.40
2018-09-28T17:46:15.711Z,1.73
2018-09-28T17:48:44.191Z,1.80
2018-09-28T17:51:12.748Z,1.60
2018-09-28T17:53:41.264Z,3.47
2018-09-28T17:56:09.732Z,1.60
2018-09-28T17:58:38.220Z,1.60
2018-09-28T18:01:06.684Z,1.47
2018-09-28T18:03:35.191Z,1.50
2018-09-28T18:06:03.808Z,1.90
2018-09-28T18:08:32.330Z,1.30
2018-09-28T18:11:00.785Z,1.60
2018-09-28T18:13:29.288Z,1.30
2018-09-28T18:15:57.735Z,1.43
2018-09-28T18:18:26.224Z,1.40
2018-09-28T18:20:54.755Z,1.57
2018-09-28T18:23:23.265Z,1.47
2018-09-28T18:25:51.725Z,2.00
2018-09-28T18:28:20.171Z,1.70
2018-09-28T18:30:48.657Z,2.23
2018-09-28T18:33:17.188Z,1.50
2018-09-28T18:35:45.644Z,1.60
2018-09-28T18:38:14.153Z,2.30
2018-09-28T18:40:42.640Z,1.80
2018-09-28T18:43:11.128Z,2.07
2018-09-28T18:45:39.634Z,2.33
2018-09-28T18:48:08.149Z,1.70
2018-09-28T18:50:36.641Z,1.30
2018-09-28T18:53:05.049Z,2.13
2018-09-28T18:55:33.551Z,1.70
2018-09-28T18:58:02.081Z,2.60
2018-09-28T19:00:30.597Z,1.97
2018-09-28T19:02:59.056Z,1.67
2018-09-28T19:05:27.554Z,1.77
2018-09-28T19:07:55.992Z,1.70
2018-09-28T19:10:24.550Z,1.30
2018-09-28T19:12:53.787Z,1.50
2018-09-28T19:15:22.084Z,1.40
2018-09-28T19:17:50.571Z,1.10
2018-09-28T19:20:19.059Z,2.03
2018-09-28T19:22:47.632Z,2.63
2018-09-28T19:25:16.117Z,1.97
2018-09-28T19:27:44.622Z,1.90
2018-09-28T19:30:13.182Z,1.80
2018-09-28T19:32:43.916Z,1.47
2018-09-28T19:35:12.379Z,1.63
2018-09-28T19:37:41.008Z,1.20
2018-09-28T19:40:09.460Z,1.83
2018-09-28T19:42:37.911Z,2.17
2018-09-28T19:45:06.452Z,1.90
2018-09-28T19:47:34.986Z,1.70
2018-09-28T19:50:03.397Z,1.70
2018-09-28T19:52:31.908Z,1.90
2018-09-28T19:55:00.389Z,1.70
2018-09-28T19:57:28.816Z,1.67
2018-09-28T19:59:57.229Z,1.90
2018-09-28T20:02:25.824Z,1.47
2018-09-28T20:04:54.252Z,1.90
2018-09-28T20:07:22.711Z,2.13
2018-09-28T20:09:51.329Z,2.07
2018-09-28T20:12:19.791Z,2.10
2018-09-28T20:14:48.155Z,2.10
2018-09-28T20:17:16.549Z,2.37
2018-09-28T20:19:46.627Z,2.90
2018-09-28T20:22:15.145Z,1.90
2018-09-28T20:24:43.577Z,2.60
2018-09-28T20:27:12.274Z,2.53
2018-09-28T20:29:40.845Z,1.90
2018-09-28T20:32:09.598Z,2.10
2018-09-28T20:34:38.125Z,1.93
2018-09-28T20:37:06.648Z,2.03
2018-09-28T20:39:35.142Z,2.10
2018-09-28T20:42:03.612Z,1.40
2018-09-28T20:44:32.091Z,1.60
2018-09-28T20:47:00.586Z,1.70
2018-09-28T20:49:29.070Z,2.33
2018-09-28T20:51:57.612Z,2.47
2018-09-28T20:54:26.186Z,2.03
2018-09-28T20:56:54.768Z,2.10
2018-09-28T20:59:23.269Z,2.23
2018-09-28T21:01:51.832Z,1.37
2018-09-28T21:04:20.452Z,1.70
2018-09-28T21:06:48.916Z,1.80
2018-09-28T21:09:17.474Z,1.70
2018-09-28T21:11:45.977Z,2.37
2018-09-28T21:14:14.646Z,2.00
2018-09-28T21:16:43.116Z,2.40
2018-09-28T21:19:11.823Z,1.90
2018-09-28T21:21:40.292Z,1.90
2018-09-28T21:24:08.728Z,1.43
2018-09-28T21:26:37.211Z,1.90
2018-09-28T21:29:05.821Z,1.73
2018-09-28T21:31:34.257Z,1.60
2018-09-28T21:34:02.700Z,1.73
2018-09-28T21:36:31.247Z,1.63
2018-09-28T21:38:59.740Z,1.40
2018-09-28T21:41:28.483Z,2.00
2018-09-28T21:43:56.950Z,1.30
2018-09-28T21:46:25.481Z,1.67
2018-09-28T21:48:53.970Z,2.53
2018-09-28T21:51:22.779Z,1.47
2018-09-28T21:53:51.297Z,2.13
2018-09-28T21:56:19.795Z,2.20
2018-09-28T21:58:48.248Z,1.20
2018-09-28T22:01:18.236Z,1.80
2018-09-28T22:03:47.707Z,1.87
2018-09-28T22:06:16.186Z,1.50
2018-09-28T22:08:44.858Z,1.60
2018-09-28T22:11:13.523Z,2.40
2018-09-28T22:13:42.034Z,1.50
2018-09-28T22:16:10.588Z,2.03
2018-09-28T22:18:39.230Z,1.47
2018-09-28T22:21:07.745Z,1.73
2018-09-28T22:23:36.272Z,2.07
2018-09-28T22:26:04.785Z,2.13
2018-09-28T22:28:34.342Z,1.87
2018-09-28T22:31:02.852Z,1.90
2018-09-28T22:33:31.400Z,1.93
2018-09-28T22:35:59.904Z,2.10
2018-09-28T22:38:28.495Z,2.03
2018-09-28T22:40:57.009Z,2.17
2018-09-28T22:43:25.592Z,1.70
2018-09-28T22:45:54.099Z,2.40
2018-09-28T22:48:22.632Z,1.97
2018-09-28T22:50:51.148Z,1.90
2018-09-28T22:53:19.674Z,1.90
2018-09-28T22:55:48.205Z,1.77
2018-09-28T22:58:16.679Z,2.27
2018-09-28T23:00:46.025Z,1.70
2018-09-28T23:03:14.577Z,1.93
2018-09-28T23:05:43.113Z,2.00
2018-09-28T23:08:11.701Z,1.40
2018-09-28T23:10:40.412Z,2.43
2018-09-28T23:13:08.999Z,1.90
2018-09-28T23:15:37.654Z,1.87
2018-09-28T23:18:06.230Z,1.47
2018-09-28T23:20:35.057Z,2.30
2018-09-28T23:23:03.639Z,2.37
2018-09-28T23:25:32.173Z,2.20
2018-09-28T23:28:00.691Z,2.10
2018-09-28T23:30:29.265Z,3.00
2018-09-28T23:32:57.803Z,1.80
2018-09-28T23:35:26.411Z,2.40
2018-09-28T23:37:55.053Z,1.63
2018-09-28T23:40:23.884Z,2.10
2018-09-28T23:42:52.456Z,2.00
2018-09-28T23:45:21.126Z,2.13
2018-09-28T23:47:49.736Z,2.30
2018-09-28T23:50:18.281Z,2.03
2018-09-28T23:52:46.850Z,1.60
2018-09-28T23:55:15.703Z,1.30
2018-09-28T23:57:44.235Z,1.80
